Pocao de Pedras, Brazil
Current Conditions -  °F | °C
As of 9:00 AM on Monday 24 Nov 2014 (Local Time) from SBTE Reporting Station
Clear Clear  
Wind Chill: 86°   Ceiling: Unl
Heat Index: 87°   Visibility: 6mi
Dew Point: 64°   Wind: 5mph
Humidity: 48%   Direction: 80°E
Pressure: 29.91"   Gusts: NA
Location:  4.75°S, 44.93°W
Report Text: SBTE 241200Z 08004KT CAVOK 30/18 Q1013
Loading
Personal Weather Stations






























Interactive Weather Map New forecast layout! Learn more

10-Day Weather Forecast

Advertisements
Track Severe Weather on mobile